sensor_id;sensor_type;location;lat;lon;timestamp;temperature;humidity
5364;DHT22;2705;41.410;2.160;2023-04-24T00:01:57;16.40;99.90
5364;DHT22;2705;41.410;2.160;2023-04-24T00:04:26;16.30;99.90
5364;DHT22;2705;41.410;2.160;2023-04-24T00:06:56;16.40;99.90
5364;DHT22;2705;41.410;2.160;2023-04-24T00:09:27;16.30;99.90
5364;DHT22;2705;41.410;2.160;2023-04-24T00:11:58;16.30;99.90
5364;DHT22;2705;41.410;2.160;2023-04-24T00:14:30;16.40;99.90
5364;DHT22;2705;41.410;2.160;2023-04-24T00:16:59;16.50;99.90
5364;DHT22;2705;41.410;2.160;2023-04-24T00:19:29;16.40;99.90
5364;DHT22;2705;41.410;2.160;2023-04-24T00:21:58;16.50;99.90
5364;DHT22;2705;41.410;2.160;2023-04-24T00:24:28;16.60;99.90
5364;DHT22;2705;41.410;2.160;2023-04-24T00:26:58;16.40;99.90
5364;DHT22;2705;41.410;2.160;2023-04-24T00:29:28;16.30;99.90
5364;DHT22;2705;41.410;2.160;2023-04-24T00:31:57;16.30;99.90
5364;DHT22;2705;41.410;2.160;2023-04-24T00:34:27;16.00;99.90
5364;DHT22;2705;41.410;2.160;2023-04-24T00:36:56;16.10;99.90
5364;DHT22;2705;41.410;2.160;2023-04-24T00:39:25;16.10;99.90
5364;DHT22;2705;41.410;2.160;2023-04-24T00:41:55;16.10;99.90
5364;DHT22;2705;41.410;2.160;2023-04-24T00:44:27;16.10;99.90
5364;DHT22;2705;41.410;2.160;2023-04-24T00:46:56;16.10;99.90
5364;DHT22;2705;41.410;2.160;2023-04-24T00:49:27;16.10;99.90
5364;DHT22;2705;41.410;2.160;2023-04-24T00:51:57;16.10;99.90
5364;DHT22;2705;41.410;2.160;2023-04-24T00:54:27;16.30;99.90
5364;DHT22;2705;41.410;2.160;2023-04-24T00:56:55;16.40;99.90
5364;DHT22;2705;41.410;2.160;2023-04-24T00:59:26;16.40;99.90
5364;DHT22;2705;41.410;2.160;2023-04-24T01:01:56;16.60;99.90
5364;DHT22;2705;41.410;2.160;2023-04-24T01:04:25;16.50;99.90
5364;DHT22;2705;41.410;2.160;2023-04-24T01:06:55;16.40;99.90
5364;DHT22;2705;41.410;2.160;2023-04-24T01:09:25;16.40;99.90
5364;DHT22;2705;41.410;2.160;2023-04-24T01:11:55;16.50;99.90
5364;DHT22;2705;41.410;2.160;2023-04-24T01:14:26;16.30;99.90
5364;DHT22;2705;41.410;2.160;2023-04-24T01:16:55;16.20;99.90
5364;DHT22;2705;41.410;2.160;2023-04-24T01:19:25;16.20;99.90
5364;DHT22;2705;41.410;2.160;2023-04-24T01:21:54;16.20;99.90
5364;DHT22;2705;41.410;2.160;2023-04-24T01:24:29;16.20;99.90
5364;DHT22;2705;41.410;2.160;2023-04-24T01:26:58;16.30;99.90
5364;DHT22;2705;41.410;2.160;2023-04-24T01:29:29;16.20;99.90
5364;DHT22;2705;41.410;2.160;2023-04-24T01:31:58;16.20;99.90
5364;DHT22;2705;41.410;2.160;2023-04-24T01:34:27;16.40;99.90
5364;DHT22;2705;41.410;2.160;2023-04-24T01:36:57;16.20;99.90
5364;DHT22;2705;41.410;2.160;2023-04-24T01:39:28;16.20;99.90
5364;DHT22;2705;41.410;2.160;2023-04-24T01:41:57;16.20;99.90
5364;DHT22;2705;41.410;2.160;2023-04-24T01:44:27;16.20;99.90
5364;DHT22;2705;41.410;2.160;2023-04-24T01:46:56;16.30;99.90
5364;DHT22;2705;41.410;2.160;2023-04-24T01:49:26;16.40;99.90
5364;DHT22;2705;41.410;2.160;2023-04-24T01:51:55;16.30;99.90
5364;DHT22;2705;41.410;2.160;2023-04-24T01:54:24;16.30;99.90
5364;DHT22;2705;41.410;2.160;2023-04-24T01:56:57;16.40;99.90
5364;DHT22;2705;41.410;2.160;2023-04-24T01:59:28;16.50;99.90
5364;DHT22;2705;41.410;2.160;2023-04-24T02:01:57;16.40;99.90
5364;DHT22;2705;41.410;2.160;2023-04-24T02:04:26;16.30;99.90
5364;DHT22;2705;41.410;2.160;2023-04-24T02:06:56;16.20;99.90
5364;DHT22;2705;41.410;2.160;2023-04-24T02:09:25;16.10;99.90
5364;DHT22;2705;41.410;2.160;2023-04-24T02:11:56;16.10;99.90
5364;DHT22;2705;41.410;2.160;2023-04-24T02:14:25;16.00;99.90
5364;DHT22;2705;41.410;2.160;2023-04-24T02:16:55;16.10;99.90
5364;DHT22;2705;41.410;2.160;2023-04-24T02:19:24;16.20;99.90
5364;DHT22;2705;41.410;2.160;2023-04-24T02:21:53;16.20;99.90
5364;DHT22;2705;41.410;2.160;2023-04-24T02:24:22;16.10;99.90
5364;DHT22;2705;41.410;2.160;2023-04-24T02:26:51;16.00;99.90
5364;DHT22;2705;41.410;2.160;2023-04-24T02:29:22;16.00;99.90
5364;DHT22;2705;41.410;2.160;2023-04-24T02:31:51;16.30;99.90
5364;DHT22;2705;41.410;2.160;2023-04-24T02:34:20;16.50;99.90
5364;DHT22;2705;41.410;2.160;2023-04-24T02:36:50;16.60;99.90
5364;DHT22;2705;41.410;2.160;2023-04-24T02:39:21;16.60;99.90
5364;DHT22;2705;41.410;2.160;2023-04-24T02:41:52;16.40;99.90
5364;DHT22;2705;41.410;2.160;2023-04-24T02:44:23;16.20;99.90
5364;DHT22;2705;41.410;2.160;2023-04-24T02:46:52;16.10;99.90
5364;DHT22;2705;41.410;2.160;2023-04-24T02:49:22;16.10;99.90
5364;DHT22;2705;41.410;2.160;2023-04-24T02:51:52;16.10;99.90
5364;DHT22;2705;41.410;2.160;2023-04-24T02:54:21;16.10;99.90
5364;DHT22;2705;41.410;2.160;2023-04-24T02:56:50;16.20;99.90
5364;DHT22;2705;41.410;2.160;2023-04-24T02:59:19;16.40;99.90
5364;DHT22;2705;41.410;2.160;2023-04-24T03:01:50;16.40;99.90
5364;DHT22;2705;41.410;2.160;2023-04-24T03:04:19;16.50;99.90
5364;DHT22;2705;41.410;2.160;2023-04-24T03:06:49;16.70;99.90
5364;DHT22;2705;41.410;2.160;2023-04-24T03:09:20;16.70;99.90
5364;DHT22;2705;41.410;2.160;2023-04-24T03:11:49;16.70;99.90
5364;DHT22;2705;41.410;2.160;2023-04-24T03:14:18;16.60;99.90
5364;DHT22;2705;41.410;2.160;2023-04-24T03:16:49;16.60;99.90
5364;DHT22;2705;41.410;2.160;2023-04-24T03:19:19;16.50;99.90
5364;DHT22;2705;41.410;2.160;2023-04-24T03:21:58;16.40;99.90
5364;DHT22;2705;41.410;2.160;2023-04-24T03:24:28;16.30;99.90
5364;DHT22;2705;41.410;2.160;2023-04-24T03:26:58;16.30;99.90
5364;DHT22;2705;41.410;2.160;2023-04-24T03:30:00;16.30;99.90
5364;DHT22;2705;41.410;2.160;2023-04-24T03:32:54;16.20;99.90
5364;DHT22;2705;41.410;2.160;2023-04-24T03:35:27;16.20;99.90
5364;DHT22;2705;41.410;2.160;2023-04-24T03:37:58;16.30;99.90
5364;DHT22;2705;41.410;2.160;2023-04-24T03:40:46;16.30;99.90
5364;DHT22;2705;41.410;2.160;2023-04-24T03:43:41;16.30;99.90
5364;DHT22;2705;41.410;2.160;2023-04-24T03:46:10;16.40;99.90
5364;DHT22;2705;41.410;2.160;2023-04-24T03:48:46;16.60;99.90
5364;DHT22;2705;41.410;2.160;2023-04-24T03:51:18;16.50;99.90
5364;DHT22;2705;41.410;2.160;2023-04-24T03:53:50;16.50;99.90
5364;DHT22;2705;41.410;2.160;2023-04-24T03:56:21;16.50;99.90
5364;DHT22;2705;41.410;2.160;2023-04-24T03:58:51;16.40;99.90
5364;DHT22;2705;41.410;2.160;2023-04-24T04:01:20;16.30;99.90
5364;DHT22;2705;41.410;2.160;2023-04-24T04:04:00;16.30;99.90
5364;DHT22;2705;41.410;2.160;2023-04-24T04:06:30;16.30;99.90
5364;DHT22;2705;41.410;2.160;2023-04-24T04:09:00;16.20;99.90
5364;DHT22;2705;41.410;2.160;2023-04-24T04:11:30;16.20;99.90
5364;DHT22;2705;41.410;2.160;2023-04-24T04:13:59;16.30;99.90
5364;DHT22;2705;41.410;2.160;2023-04-24T04:16:29;16.30;99.90
5364;DHT22;2705;41.410;2.160;2023-04-24T04:19:03;16.30;99.90
5364;DHT22;2705;41.410;2.160;2023-04-24T04:21:33;16.30;99.90
5364;DHT22;2705;41.410;2.160;2023-04-24T04:24:10;16.40;99.90
5364;DHT22;2705;41.410;2.160;2023-04-24T04:26:45;16.40;99.90
5364;DHT22;2705;41.410;2.160;2023-04-24T04:29:25;16.50;99.90
5364;DHT22;2705;41.410;2.160;2023-04-24T04:31:55;16.40;99.90
5364;DHT22;2705;41.410;2.160;2023-04-24T04:34:26;16.40;99.90
5364;DHT22;2705;41.410;2.160;2023-04-24T04:36:56;16.50;99.90
5364;DHT22;2705;41.410;2.160;2023-04-24T04:39:50;16.40;99.90
5364;DHT22;2705;41.410;2.160;2023-04-24T04:42:24;16.30;99.90
5364;DHT22;2705;41.410;2.160;2023-04-24T04:44:55;16.30;99.90
5364;DHT22;2705;41.410;2.160;2023-04-24T04:47:34;16.40;99.90
5364;DHT22;2705;41.410;2.160;2023-04-24T04:50:06;16.30;99.90
5364;DHT22;2705;41.410;2.160;2023-04-24T04:52:36;16.40;99.90
5364;DHT22;2705;41.410;2.160;2023-04-24T04:55:17;16.40;99.90
5364;DHT22;2705;41.410;2.160;2023-04-24T04:58:07;16.40;99.90
5364;DHT22;2705;41.410;2.160;2023-04-24T05:00:37;16.40;99.90
5364;DHT22;2705;41.410;2.160;2023-04-24T05:03:15;16.40;99.90
5364;DHT22;2705;41.410;2.160;2023-04-24T05:05:57;16.30;99.90
5364;DHT22;2705;41.410;2.160;2023-04-24T05:08:29;16.40;99.90
5364;DHT22;2705;41.410;2.160;2023-04-24T05:10:58;16.40;99.90
5364;DHT22;2705;41.410;2.160;2023-04-24T05:13:29;16.30;99.90
5364;DHT22;2705;41.410;2.160;2023-04-24T05:16:18;16.20;99.90
5364;DHT22;2705;41.410;2.160;2023-04-24T05:18:49;16.20;99.90
5364;DHT22;2705;41.410;2.160;2023-04-24T05:21:24;16.10;99.90
5364;DHT22;2705;41.410;2.160;2023-04-24T05:23:54;16.10;99.90
5364;DHT22;2705;41.410;2.160;2023-04-24T05:26:45;16.20;99.90
5364;DHT22;2705;41.410;2.160;2023-04-24T05:29:17;16.20;99.90
5364;DHT22;2705;41.410;2.160;2023-04-24T05:31:47;16.20;99.90
5364;DHT22;2705;41.410;2.160;2023-04-24T05:34:16;16.30;99.90
5364;DHT22;2705;41.410;2.160;2023-04-24T05:36:51;16.40;99.90
5364;DHT22;2705;41.410;2.160;2023-04-24T05:39:21;16.50;99.90
5364;DHT22;2705;41.410;2.160;2023-04-24T05:41:53;16.40;99.90
5364;DHT22;2705;41.410;2.160;2023-04-24T05:44:25;16.60;99.90
5364;DHT22;2705;41.410;2.160;2023-04-24T05:46:54;16.70;99.90
5364;DHT22;2705;41.410;2.160;2023-04-24T05:49:24;16.60;99.90
5364;DHT22;2705;41.410;2.160;2023-04-24T05:51:56;16.60;99.90
5364;DHT22;2705;41.410;2.160;2023-04-24T05:54:25;16.60;99.90
5364;DHT22;2705;41.410;2.160;2023-04-24T05:56:56;16.80;99.90
5364;DHT22;2705;41.410;2.160;2023-04-24T05:59:36;16.70;99.90
5364;DHT22;2705;41.410;2.160;2023-04-24T06:02:06;16.40;99.90
5364;DHT22;2705;41.410;2.160;2023-04-24T06:04:35;16.60;99.90
5364;DHT22;2705;41.410;2.160;2023-04-24T06:07:07;16.60;99.90
5364;DHT22;2705;41.410;2.160;2023-04-24T06:09:37;16.60;99.90
5364;DHT22;2705;41.410;2.160;2023-04-24T06:12:07;16.80;99.90
5364;DHT22;2705;41.410;2.160;2023-04-24T06:14:51;16.90;99.90
5364;DHT22;2705;41.410;2.160;2023-04-24T06:17:43;17.00;99.90
5364;DHT22;2705;41.410;2.160;2023-04-24T06:20:17;17.10;99.90
5364;DHT22;2705;41.410;2.160;2023-04-24T06:22:48;17.10;99.90
5364;DHT22;2705;41.410;2.160;2023-04-24T06:25:18;17.20;99.90
5364;DHT22;2705;41.410;2.160;2023-04-24T06:27:47;17.00;99.90
5364;DHT22;2705;41.410;2.160;2023-04-24T06:30:17;17.10;99.90
5364;DHT22;2705;41.410;2.160;2023-04-24T06:32:46;17.10;99.90
5364;DHT22;2705;41.410;2.160;2023-04-24T06:35:16;17.10;99.90
5364;DHT22;2705;41.410;2.160;2023-04-24T06:37:48;17.10;99.90
5364;DHT22;2705;41.410;2.160;2023-04-24T06:40:17;17.00;99.90
5364;DHT22;2705;41.410;2.160;2023-04-24T06:42:47;17.10;99.90
5364;DHT22;2705;41.410;2.160;2023-04-24T06:45:16;17.20;99.90
5364;DHT22;2705;41.410;2.160;2023-04-24T06:47:46;17.20;99.90
5364;DHT22;2705;41.410;2.160;2023-04-24T06:50:15;17.00;99.90
5364;DHT22;2705;41.410;2.160;2023-04-24T06:52:44;17.20;99.90
5364;DHT22;2705;41.410;2.160;2023-04-24T06:55:16;17.30;99.90
5364;DHT22;2705;41.410;2.160;2023-04-24T06:57:45;17.40;99.90
5364;DHT22;2705;41.410;2.160;2023-04-24T07:00:14;17.50;99.90
5364;DHT22;2705;41.410;2.160;2023-04-24T07:02:43;17.60;99.90
5364;DHT22;2705;41.410;2.160;2023-04-24T07:05:13;17.40;99.90
5364;DHT22;2705;41.410;2.160;2023-04-24T07:07:43;17.50;99.90
5364;DHT22;2705;41.410;2.160;2023-04-24T07:10:12;17.50;99.90
5364;DHT22;2705;41.410;2.160;2023-04-24T07:12:44;17.60;99.90
5364;DHT22;2705;41.410;2.160;2023-04-24T07:15:14;17.70;99.90
5364;DHT22;2705;41.410;2.160;2023-04-24T07:17:44;17.90;99.90
5364;DHT22;2705;41.410;2.160;2023-04-24T07:20:14;18.10;99.90
5364;DHT22;2705;41.410;2.160;2023-04-24T07:22:44;18.00;99.90
5364;DHT22;2705;41.410;2.160;2023-04-24T07:25:13;18.30;99.90
5364;DHT22;2705;41.410;2.160;2023-04-24T07:27:44;18.30;99.90
5364;DHT22;2705;41.410;2.160;2023-04-24T07:30:13;18.40;99.90
5364;DHT22;2705;41.410;2.160;2023-04-24T07:32:42;18.50;99.90
5364;DHT22;2705;41.410;2.160;2023-04-24T07:35:12;18.50;99.90
5364;DHT22;2705;41.410;2.160;2023-04-24T07:37:42;18.40;99.90
5364;DHT22;2705;41.410;2.160;2023-04-24T07:40:13;18.40;99.90
5364;DHT22;2705;41.410;2.160;2023-04-24T07:42:44;18.40;99.90
5364;DHT22;2705;41.410;2.160;2023-04-24T07:45:35;18.60;99.90
5364;DHT22;2705;41.410;2.160;2023-04-24T07:48:41;18.80;99.90
5364;DHT22;2705;41.410;2.160;2023-04-24T07:51:10;18.60;99.90
5364;DHT22;2705;41.410;2.160;2023-04-24T07:53:41;18.80;99.90
5364;DHT22;2705;41.410;2.160;2023-04-24T07:56:11;18.90;99.90
5364;DHT22;2705;41.410;2.160;2023-04-24T07:58:41;18.80;99.90
5364;DHT22;2705;41.410;2.160;2023-04-24T08:01:10;18.80;99.90
5364;DHT22;2705;41.410;2.160;2023-04-24T08:03:40;18.70;99.90
5364;DHT22;2705;41.410;2.160;2023-04-24T08:06:10;18.60;99.90
5364;DHT22;2705;41.410;2.160;2023-04-24T08:08:39;18.60;99.90
5364;DHT22;2705;41.410;2.160;2023-04-24T08:11:09;18.60;99.90
5364;DHT22;2705;41.410;2.160;2023-04-24T08:13:38;18.60;99.90
5364;DHT22;2705;41.410;2.160;2023-04-24T08:16:09;18.50;99.90
5364;DHT22;2705;41.410;2.160;2023-04-24T08:18:38;18.50;99.90
5364;DHT22;2705;41.410;2.160;2023-04-24T08:21:08;18.70;99.90
5364;DHT22;2705;41.410;2.160;2023-04-24T08:23:39;18.90;99.90
5364;DHT22;2705;41.410;2.160;2023-04-24T08:26:08;19.10;99.90
5364;DHT22;2705;41.410;2.160;2023-04-24T08:28:38;19.30;99.90
5364;DHT22;2705;41.410;2.160;2023-04-24T08:31:09;19.30;99.90
5364;DHT22;2705;41.410;2.160;2023-04-24T08:33:38;19.20;99.90
5364;DHT22;2705;41.410;2.160;2023-04-24T08:36:08;19.50;99.90
5364;DHT22;2705;41.410;2.160;2023-04-24T08:38:37;19.30;99.90
5364;DHT22;2705;41.410;2.160;2023-04-24T08:41:09;19.20;99.90
5364;DHT22;2705;41.410;2.160;2023-04-24T08:43:39;19.20;99.90
5364;DHT22;2705;41.410;2.160;2023-04-24T08:46:11;19.60;99.90
5364;DHT22;2705;41.410;2.160;2023-04-24T08:48:41;19.80;99.90
5364;DHT22;2705;41.410;2.160;2023-04-24T08:51:11;19.80;99.90
5364;DHT22;2705;41.410;2.160;2023-04-24T08:53:40;19.70;99.90
5364;DHT22;2705;41.410;2.160;2023-04-24T08:56:11;20.00;99.90
5364;DHT22;2705;41.410;2.160;2023-04-24T08:58:41;20.00;99.90
5364;DHT22;2705;41.410;2.160;2023-04-24T09:01:14;19.90;99.90
5364;DHT22;2705;41.410;2.160;2023-04-24T09:03:43;20.10;99.90
5364;DHT22;2705;41.410;2.160;2023-04-24T09:06:13;20.20;99.90
5364;DHT22;2705;41.410;2.160;2023-04-24T09:08:42;20.40;99.90
5364;DHT22;2705;41.410;2.160;2023-04-24T09:11:13;20.20;99.90
5364;DHT22;2705;41.410;2.160;2023-04-24T09:13:43;20.10;99.90
5364;DHT22;2705;41.410;2.160;2023-04-24T09:16:14;20.30;99.90
5364;DHT22;2705;41.410;2.160;2023-04-24T09:18:43;20.10;99.90
5364;DHT22;2705;41.410;2.160;2023-04-24T09:21:12;20.40;99.90
5364;DHT22;2705;41.410;2.160;2023-04-24T09:23:43;20.50;99.90
5364;DHT22;2705;41.410;2.160;2023-04-24T09:26:12;20.80;99.90
5364;DHT22;2705;41.410;2.160;2023-04-24T09:28:42;21.00;99.90
5364;DHT22;2705;41.410;2.160;2023-04-24T09:31:15;21.00;99.90
5364;DHT22;2705;41.410;2.160;2023-04-24T09:33:54;20.80;99.90
5364;DHT22;2705;41.410;2.160;2023-04-24T09:36:28;20.80;99.90
5364;DHT22;2705;41.410;2.160;2023-04-24T09:39:01;20.50;99.90
5364;DHT22;2705;41.410;2.160;2023-04-24T09:41:32;20.30;99.90
5364;DHT22;2705;41.410;2.160;2023-04-24T09:44:12;20.10;99.90
5364;DHT22;2705;41.410;2.160;2023-04-24T09:46:44;20.60;99.90
5364;DHT22;2705;41.410;2.160;2023-04-24T09:49:15;20.60;99.90
5364;DHT22;2705;41.410;2.160;2023-04-24T09:51:44;20.80;99.90
5364;DHT22;2705;41.410;2.160;2023-04-24T09:54:15;20.30;99.90
5364;DHT22;2705;41.410;2.160;2023-04-24T09:56:46;20.50;99.90
5364;DHT22;2705;41.410;2.160;2023-04-24T09:59:17;20.80;99.90
5364;DHT22;2705;41.410;2.160;2023-04-24T10:01:47;21.00;99.90
5364;DHT22;2705;41.410;2.160;2023-04-24T10:04:19;20.60;99.90
5364;DHT22;2705;41.410;2.160;2023-04-24T10:06:50;20.70;99.90
5364;DHT22;2705;41.410;2.160;2023-04-24T10:09:26;21.20;99.90
5364;DHT22;2705;41.410;2.160;2023-04-24T10:11:55;21.50;99.90
5364;DHT22;2705;41.410;2.160;2023-04-24T10:14:25;21.50;99.90
5364;DHT22;2705;41.410;2.160;2023-04-24T10:16:56;21.50;99.90
5364;DHT22;2705;41.410;2.160;2023-04-24T10:19:26;21.00;99.90
5364;DHT22;2705;41.410;2.160;2023-04-24T10:21:56;20.90;99.90
5364;DHT22;2705;41.410;2.160;2023-04-24T10:24:26;20.70;99.90
5364;DHT22;2705;41.410;2.160;2023-04-24T10:26:55;21.00;99.90
5364;DHT22;2705;41.410;2.160;2023-04-24T10:29:26;20.90;99.90
5364;DHT22;2705;41.410;2.160;2023-04-24T10:31:57;20.90;99.90
5364;DHT22;2705;41.410;2.160;2023-04-24T10:34:26;20.80;99.90
5364;DHT22;2705;41.410;2.160;2023-04-24T10:36:57;21.20;99.90
5364;DHT22;2705;41.410;2.160;2023-04-24T10:39:26;21.40;99.90
5364;DHT22;2705;41.410;2.160;2023-04-24T10:41:57;21.30;99.90
5364;DHT22;2705;41.410;2.160;2023-04-24T10:44:36;21.20;99.90
5364;DHT22;2705;41.410;2.160;2023-04-24T10:47:13;21.10;99.90
5364;DHT22;2705;41.410;2.160;2023-04-24T10:49:43;21.20;99.90
5364;DHT22;2705;41.410;2.160;2023-04-24T10:52:12;21.30;99.90
5364;DHT22;2705;41.410;2.160;2023-04-24T10:54:45;21.20;99.90
5364;DHT22;2705;41.410;2.160;2023-04-24T10:57:27;21.50;99.90
5364;DHT22;2705;41.410;2.160;2023-04-24T11:00:20;21.80;99.90
5364;DHT22;2705;41.410;2.160;2023-04-24T11:02:52;21.70;99.90
5364;DHT22;2705;41.410;2.160;2023-04-24T11:08:31;21.20;99.90
5364;DHT22;2705;41.410;2.160;2023-04-24T11:11:08;21.60;99.90
5364;DHT22;2705;41.410;2.160;2023-04-24T11:14:06;22.20;99.90
5364;DHT22;2705;41.410;2.160;2023-04-24T11:16:43;21.90;99.90
5364;DHT22;2705;41.410;2.160;2023-04-24T11:19:22;22.10;99.90
5364;DHT22;2705;41.410;2.160;2023-04-24T11:21:58;22.30;99.90
5364;DHT22;2705;41.410;2.160;2023-04-24T11:24:30;22.50;99.90
5364;DHT22;2705;41.410;2.160;2023-04-24T11:27:05;22.40;99.90
5364;DHT22;2705;41.410;2.160;2023-04-24T11:29:41;22.20;99.90
5364;DHT22;2705;41.410;2.160;2023-04-24T11:32:16;22.00;99.90
5364;DHT22;2705;41.410;2.160;2023-04-24T11:34:49;22.10;99.90
5364;DHT22;2705;41.410;2.160;2023-04-24T11:37:20;22.10;99.90
5364;DHT22;2705;41.410;2.160;2023-04-24T11:39:51;22.00;99.90
5364;DHT22;2705;41.410;2.160;2023-04-24T11:42:22;21.90;99.90
5364;DHT22;2705;41.410;2.160;2023-04-24T11:44:54;22.20;99.90
5364;DHT22;2705;41.410;2.160;2023-04-24T11:47:29;21.90;99.90
5364;DHT22;2705;41.410;2.160;2023-04-24T11:50:03;22.10;99.90
5364;DHT22;2705;41.410;2.160;2023-04-24T11:52:36;22.10;99.90
5364;DHT22;2705;41.410;2.160;2023-04-24T11:55:07;21.90;99.90
5364;DHT22;2705;41.410;2.160;2023-04-24T11:57:37;21.30;99.90
5364;DHT22;2705;41.410;2.160;2023-04-24T12:00:08;21.60;99.90
5364;DHT22;2705;41.410;2.160;2023-04-24T12:02:40;22.00;99.90
5364;DHT22;2705;41.410;2.160;2023-04-24T12:05:19;22.00;99.90
5364;DHT22;2705;41.410;2.160;2023-04-24T12:07:49;21.80;99.90
5364;DHT22;2705;41.410;2.160;2023-04-24T12:10:21;22.20;99.90
5364;DHT22;2705;41.410;2.160;2023-04-24T12:12:51;21.30;99.90
5364;DHT22;2705;41.410;2.160;2023-04-24T12:15:21;21.30;99.90
5364;DHT22;2705;41.410;2.160;2023-04-24T12:17:51;21.30;99.90
5364;DHT22;2705;41.410;2.160;2023-04-24T12:20:27;21.40;99.90
5364;DHT22;2705;41.410;2.160;2023-04-24T12:22:57;21.30;99.90
5364;DHT22;2705;41.410;2.160;2023-04-24T12:25:29;21.50;99.90
5364;DHT22;2705;41.410;2.160;2023-04-24T12:28:10;21.80;99.90
5364;DHT22;2705;41.410;2.160;2023-04-24T12:30:41;21.70;99.90
5364;DHT22;2705;41.410;2.160;2023-04-24T12:33:12;21.60;99.90
5364;DHT22;2705;41.410;2.160;2023-04-24T12:35:43;21.90;99.90
5364;DHT22;2705;41.410;2.160;2023-04-24T12:38:13;22.40;99.90
5364;DHT22;2705;41.410;2.160;2023-04-24T12:40:43;22.40;99.90
5364;DHT22;2705;41.410;2.160;2023-04-24T12:43:16;22.70;99.90
5364;DHT22;2705;41.410;2.160;2023-04-24T12:45:47;22.50;99.90
5364;DHT22;2705;41.410;2.160;2023-04-24T12:48:16;21.90;99.90
5364;DHT22;2705;41.410;2.160;2023-04-24T12:50:49;21.20;99.90
5364;DHT22;2705;41.410;2.160;2023-04-24T12:53:18;21.30;99.90
5364;DHT22;2705;41.410;2.160;2023-04-24T12:55:47;21.30;99.90
5364;DHT22;2705;41.410;2.160;2023-04-24T12:58:20;21.60;99.90
5364;DHT22;2705;41.410;2.160;2023-04-24T13:00:49;21.80;99.90
5364;DHT22;2705;41.410;2.160;2023-04-24T13:03:43;21.50;99.90
5364;DHT22;2705;41.410;2.160;2023-04-24T13:06:14;21.30;99.90
5364;DHT22;2705;41.410;2.160;2023-04-24T13:08:44;20.70;99.90
5364;DHT22;2705;41.410;2.160;2023-04-24T13:11:14;21.10;99.90
5364;DHT22;2705;41.410;2.160;2023-04-24T13:13:44;21.30;99.90
5364;DHT22;2705;41.410;2.160;2023-04-24T13:16:13;21.00;99.90
5364;DHT22;2705;41.410;2.160;2023-04-24T13:18:42;21.60;99.90
5364;DHT22;2705;41.410;2.160;2023-04-24T13:21:12;21.70;99.90
5364;DHT22;2705;41.410;2.160;2023-04-24T13:23:42;21.90;99.90
5364;DHT22;2705;41.410;2.160;2023-04-24T13:26:12;21.70;99.90
5364;DHT22;2705;41.410;2.160;2023-04-24T13:28:41;21.80;99.90
5364;DHT22;2705;41.410;2.160;2023-04-24T13:31:10;21.60;99.90
5364;DHT22;2705;41.410;2.160;2023-04-24T13:33:39;21.50;99.90
5364;DHT22;2705;41.410;2.160;2023-04-24T13:36:09;21.50;99.90
5364;DHT22;2705;41.410;2.160;2023-04-24T13:38:38;21.60;99.90
5364;DHT22;2705;41.410;2.160;2023-04-24T13:41:09;21.60;99.90
5364;DHT22;2705;41.410;2.160;2023-04-24T13:43:38;21.90;99.90
5364;DHT22;2705;41.410;2.160;2023-04-24T13:46:09;22.00;99.90
5364;DHT22;2705;41.410;2.160;2023-04-24T13:48:39;21.80;99.90
5364;DHT22;2705;41.410;2.160;2023-04-24T13:51:08;21.70;99.90
5364;DHT22;2705;41.410;2.160;2023-04-24T13:53:37;21.90;99.90
5364;DHT22;2705;41.410;2.160;2023-04-24T13:56:08;22.00;99.90
5364;DHT22;2705;41.410;2.160;2023-04-24T13:58:37;22.60;99.90
5364;DHT22;2705;41.410;2.160;2023-04-24T14:01:07;22.50;99.90
5364;DHT22;2705;41.410;2.160;2023-04-24T14:04:01;22.90;99.90
5364;DHT22;2705;41.410;2.160;2023-04-24T14:06:31;22.80;99.90
5364;DHT22;2705;41.410;2.160;2023-04-24T14:09:01;22.90;99.90
5364;DHT22;2705;41.410;2.160;2023-04-24T14:11:31;22.40;99.90
5364;DHT22;2705;41.410;2.160;2023-04-24T14:14:00;22.20;99.90
5364;DHT22;2705;41.410;2.160;2023-04-24T14:16:30;21.70;99.90
5364;DHT22;2705;41.410;2.160;2023-04-24T14:19:00;22.20;99.90
5364;DHT22;2705;41.410;2.160;2023-04-24T14:21:29;22.70;99.90
5364;DHT22;2705;41.410;2.160;2023-04-24T14:23:58;23.10;99.90
5364;DHT22;2705;41.410;2.160;2023-04-24T14:26:27;23.30;99.90
5364;DHT22;2705;41.410;2.160;2023-04-24T14:28:58;22.90;99.90
5364;DHT22;2705;41.410;2.160;2023-04-24T14:31:41;22.40;99.90
5364;DHT22;2705;41.410;2.160;2023-04-24T14:34:12;22.70;99.90
5364;DHT22;2705;41.410;2.160;2023-04-24T14:36:43;22.90;99.90
5364;DHT22;2705;41.410;2.160;2023-04-24T14:39:12;23.30;99.90
5364;DHT22;2705;41.410;2.160;2023-04-24T14:41:41;23.50;99.90
5364;DHT22;2705;41.410;2.160;2023-04-24T14:44:12;23.30;99.90
5364;DHT22;2705;41.410;2.160;2023-04-24T14:46:41;23.00;99.90
5364;DHT22;2705;41.410;2.160;2023-04-24T14:49:11;23.30;99.90
5364;DHT22;2705;41.410;2.160;2023-04-24T14:51:40;23.50;99.90
5364;DHT22;2705;41.410;2.160;2023-04-24T14:54:10;23.70;99.90
5364;DHT22;2705;41.410;2.160;2023-04-24T14:56:39;23.50;99.90
5364;DHT22;2705;41.410;2.160;2023-04-24T14:59:08;23.60;99.90
5364;DHT22;2705;41.410;2.160;2023-04-24T15:01:39;23.40;99.90
5364;DHT22;2705;41.410;2.160;2023-04-24T15:04:08;23.40;99.90
5364;DHT22;2705;41.410;2.160;2023-04-24T15:06:38;23.20;99.90
5364;DHT22;2705;41.410;2.160;2023-04-24T15:09:07;23.20;99.90
5364;DHT22;2705;41.410;2.160;2023-04-24T15:11:36;23.10;99.90
5364;DHT22;2705;41.410;2.160;2023-04-24T15:14:05;22.60;99.90
5364;DHT22;2705;41.410;2.160;2023-04-24T15:16:39;21.80;99.90
5364;DHT22;2705;41.410;2.160;2023-04-24T15:19:08;21.90;99.90
5364;DHT22;2705;41.410;2.160;2023-04-24T15:21:38;22.10;99.90
5364;DHT22;2705;41.410;2.160;2023-04-24T15:24:08;21.80;99.90
5364;DHT22;2705;41.410;2.160;2023-04-24T15:26:37;21.30;99.90
5364;DHT22;2705;41.410;2.160;2023-04-24T15:29:07;21.70;99.90
5364;DHT22;2705;41.410;2.160;2023-04-24T15:31:36;21.70;99.90
5364;DHT22;2705;41.410;2.160;2023-04-24T15:34:09;21.50;99.90
5364;DHT22;2705;41.410;2.160;2023-04-24T15:36:39;21.60;99.90
5364;DHT22;2705;41.410;2.160;2023-04-24T15:39:08;21.00;99.90
5364;DHT22;2705;41.410;2.160;2023-04-24T15:41:37;20.90;99.90
5364;DHT22;2705;41.410;2.160;2023-04-24T15:44:06;21.00;99.90
5364;DHT22;2705;41.410;2.160;2023-04-24T15:46:36;21.10;99.90
5364;DHT22;2705;41.410;2.160;2023-04-24T15:49:05;20.80;99.90
5364;DHT22;2705;41.410;2.160;2023-04-24T15:51:36;20.90;99.90
5364;DHT22;2705;41.410;2.160;2023-04-24T15:54:06;21.00;99.90
5364;DHT22;2705;41.410;2.160;2023-04-24T15:56:35;21.00;99.90
5364;DHT22;2705;41.410;2.160;2023-04-24T15:59:04;20.90;99.90
5364;DHT22;2705;41.410;2.160;2023-04-24T16:01:34;21.00;99.90
5364;DHT22;2705;41.410;2.160;2023-04-24T16:04:03;21.00;99.90
5364;DHT22;2705;41.410;2.160;2023-04-24T16:06:32;20.90;99.90
5364;DHT22;2705;41.410;2.160;2023-04-24T16:09:03;21.00;99.90
5364;DHT22;2705;41.410;2.160;2023-04-24T16:11:33;20.80;99.90
5364;DHT22;2705;41.410;2.160;2023-04-24T16:14:03;20.70;99.90
5364;DHT22;2705;41.410;2.160;2023-04-24T16:16:32;20.60;99.90
5364;DHT22;2705;41.410;2.160;2023-04-24T16:19:02;20.40;99.90
5364;DHT22;2705;41.410;2.160;2023-04-24T16:21:31;20.20;99.90
5364;DHT22;2705;41.410;2.160;2023-04-24T16:24:00;20.30;99.90
5364;DHT22;2705;41.410;2.160;2023-04-24T16:26:31;20.30;99.90
5364;DHT22;2705;41.410;2.160;2023-04-24T16:29:00;20.40;99.90
5364;DHT22;2705;41.410;2.160;2023-04-24T16:31:29;20.40;99.90
5364;DHT22;2705;41.410;2.160;2023-04-24T16:33:59;20.70;99.90